Time;durP1;ratioP1;P1;durP2;ratioP2;P2;SDS_P1;SDS_P2;PMS_P1;PMS_P2;Temp;Humidity;BMP_temperature;BMP_pressure;BME280_temperature;BME280_humidity;BME280_pressure;Samples;Min_cycle;Max_cycle;Signal;HPM_P1;HPM_P2
2022/08/06 00:01:55;;;;;;;21.55;9.58;;;;;;;25.30;100.00;99608.45;1704380;82;20971;-66
2022/08/06 00:04:26;;;;;;;12.85;9.30;;;;;;;25.30;100.00;99597.81;1697193;84;21067;-66
2022/08/06 00:06:53;;;;;;;10.00;8.13;;;;;;;25.28;100.00;99596.19;1697406;84;21492;-67
2022/08/06 00:09:21;;;;;;;11.48;9.03;;;;;;;25.26;100.00;99595.02;1697448;84;21715;-66
2022/08/06 00:11:47;;;;;;;9.25;8.23;;;;;;;25.24;100.00;99603.09;1697243;82;20947;-66
2022/08/06 00:14:15;;;;;;;12.95;8.95;;;;;;;25.22;100.00;99606.34;1697311;84;20983;-66
2022/08/06 00:16:43;;;;;;;13.00;8.55;;;;;;;25.16;100.00;99609.44;1697163;84;21023;-67
2022/08/06 00:19:09;;;;;;;10.53;8.50;;;;;;;25.16;100.00;99605.98;1697329;83;21004;-66
2022/08/06 00:21:37;;;;;;;11.45;9.95;;;;;;;25.13;100.00;99610.28;1699139;82;21031;-66
2022/08/06 00:24:06;;;;;;;10.88;9.18;;;;;;;25.13;100.00;99617.32;1684288;85;20964;-66
2022/08/06 00:26:34;;;;;;;9.83;8.65;;;;;;;25.10;100.00;99620.95;1684613;85;21027;-65
2022/08/06 00:29:00;;;;;;;10.20;8.28;;;;;;;25.09;100.00;99625.80;1637643;87;20960;-66
2022/08/06 00:31:27;;;;;;;11.97;8.53;;;;;;;25.07;100.00;99625.42;1655337;85;21022;-66
2022/08/06 00:33:55;;;;;;;12.05;8.83;;;;;;;25.06;100.00;99629.44;1658906;86;21094;-66
2022/08/06 00:36:27;;;;;;;12.05;8.75;;;;;;;25.03;100.00;99624.64;1656346;86;20895;-70
2022/08/06 00:39:00;;;;;;;12.82;8.18;;;;;;;25.02;100.00;99625.88;1658754;85;21058;-66
2022/08/06 00:41:27;;;;;;;9.93;8.93;;;;;;;25.00;100.00;99631.92;1658866;86;21017;-67
2022/08/06 00:43:56;;;;;;;11.95;8.73;;;;;;;24.98;100.00;99627.31;1658872;86;21008;-67
2022/08/06 00:46:24;;;;;;;13.05;8.95;;;;;;;24.96;100.00;99630.37;1658824;86;21034;-66
2022/08/06 00:48:52;;;;;;;9.40;7.00;;;;;;;24.95;100.00;99625.33;1656175;85;21411;-66
2022/08/06 00:51:23;;;;;;;11.05;8.13;;;;;;;24.93;100.00;99630.58;1658528;86;21094;-66
2022/08/06 00:53:50;;;;;;;11.50;9.10;;;;;;;24.89;100.00;99627.76;1704088;84;21022;-70
2022/08/06 00:56:17;;;;;;;10.90;9.13;;;;;;;24.86;100.00;99623.56;1704588;83;21011;-66
2022/08/06 00:58:45;;;;;;;9.05;7.72;;;;;;;24.83;100.00;99630.03;1703084;82;21896;-67
2022/08/06 01:01:12;;;;;;;12.60;8.43;;;;;;;24.80;100.00;99629.64;1688472;84;21423;-67
2022/08/06 01:03:38;;;;;;;11.15;9.30;;;;;;;24.78;100.00;99630.69;1704549;84;21044;-66
2022/08/06 01:06:05;;;;;;;10.53;8.78;;;;;;;24.76;100.00;99632.30;1704643;83;21515;-66
2022/08/06 01:08:31;;;;;;;13.43;8.15;;;;;;;24.73;100.00;99631.13;1697456;82;20976;-67
2022/08/06 01:10:59;;;;;;;13.50;9.20;;;;;;;24.75;100.00;99633.53;1684883;85;21480;-67
2022/08/06 01:13:26;;;;;;;12.65;9.55;;;;;;;24.75;100.00;99634.34;1690052;84;21100;-66
2022/08/06 01:16:19;;;;;;;13.20;8.40;;;;;;;24.82;100.00;99631.27;1684636;85;21024;-69
2022/08/06 01:18:57;;;;;;;11.97;8.28;;;;;;;24.73;100.00;99634.55;1637916;85;21084;-66
2022/08/06 01:21:49;;;;;;;12.75;8.40;;;;;;;24.74;100.00;99634.73;1675648;85;20976;-66
2022/08/06 01:24:45;;;;;;;11.97;8.75;;;;;;;24.70;100.00;99634.78;1678072;85;21098;-69
2022/08/06 01:27:45;;;;;;;9.70;8.30;;;;;;;24.78;100.00;99632.70;1677904;85;20940;-66
2022/08/06 01:30:18;;;;;;;9.48;7.90;;;;;;;24.92;100.00;99628.98;1637004;87;20872;-67
2022/08/06 01:32:57;;;;;;;14.33;8.20;;;;;;;24.91;100.00;99628.78;1609250;89;21136;-66
2022/08/06 01:35:30;;;;;;;16.95;8.35;;;;;;;24.71;100.00;99637.78;1622276;87;20969;-66
2022/08/06 01:38:00;;;;;;;11.15;8.18;;;;;;;24.67;100.00;99635.59;1615768;86;21253;-67
2022/08/06 01:40:31;;;;;;;9.88;8.20;;;;;;;24.68;100.00;99637.21;1663988;85;20953;-67
2022/08/06 01:42:57;;;;;;;11.78;7.87;;;;;;;24.51;100.00;99634.13;1646780;87;20983;-66
2022/08/06 01:45:31;;;;;;;11.60;7.92;;;;;;;24.61;100.00;99630.22;1646949;87;21048;-68
2022/08/06 01:48:01;;;;;;;9.05;7.17;;;;;;;24.61;100.00;99628.21;1647706;85;21053;-66
2022/08/06 01:50:32;;;;;;;8.08;7.25;;;;;;;24.58;100.00;99624.02;1646929;87;21114;-65
2022/08/06 01:53:06;;;;;;;9.43;7.83;;;;;;;24.55;100.00;99629.85;1646859;87;20956;-67
2022/08/06 01:55:42;;;;;;;9.58;7.53;;;;;;;24.53;100.00;99632.30;1625662;87;20958;-67
2022/08/06 01:58:13;;;;;;;7.80;7.10;;;;;;;24.51;100.00;99629.91;1646636;87;20929;-67
2022/08/06 02:00:42;;;;;;;12.88;7.17;;;;;;;24.49;100.00;99630.92;1646672;87;20958;-66
2022/08/06 02:03:24;;;;;;;8.58;7.08;;;;;;;24.49;100.00;99630.11;1625962;87;21175;-66
2022/08/06 02:05:52;;;;;;;9.13;6.80;;;;;;;24.47;100.00;99629.12;1646259;85;20926;-66
2022/08/06 02:08:19;;;;;;;11.43;6.75;;;;;;;24.48;100.00;99629.92;1646636;86;20965;-66
2022/08/06 02:10:48;;;;;;;9.63;6.95;;;;;;;24.48;100.00;99629.30;1646705;87;20937;-66
2022/08/06 02:13:15;;;;;;;11.55;7.10;;;;;;;24.46;100.00;99627.53;1646825;87;21402;-67
2022/08/06 02:15:42;;;;;;;9.45;7.15;;;;;;;24.43;100.00;99626.33;1646311;85;21413;-67
2022/08/06 02:18:08;;;;;;;7.78;6.95;;;;;;;24.35;100.00;99623.97;1646373;87;20982;-68
2022/08/06 02:20:44;;;;;;;9.40;6.28;;;;;;;24.33;100.00;99626.42;1613491;87;21119;-66
2022/08/06 02:23:15;;;;;;;8.20;6.60;;;;;;;24.29;100.00;99631.44;1638926;86;22264;-70
2022/08/06 02:25:44;;;;;;;7.72;6.47;;;;;;;24.26;100.00;99623.05;1630290;86;21051;-67
2022/08/06 02:28:12;;;;;;;8.75;6.60;;;;;;;24.24;100.00;99630.47;1649047;87;21228;-67
2022/08/06 02:30:43;;;;;;;6.90;6.17;;;;;;;24.21;100.00;99631.30;1637429;86;20968;-66
2022/08/06 02:33:11;;;;;;;10.53;6.40;;;;;;;24.18;100.00;99630.13;1674865;85;20984;-66
2022/08/06 02:36:16;;;;;;;7.97;6.05;;;;;;;24.16;100.00;99630.29;1637782;85;21044;-65
2022/08/06 02:39:03;;;;;;;8.30;6.00;;;;;;;24.15;100.00;99625.89;1649107;87;21093;-67
2022/08/06 02:41:45;;;;;;;7.87;6.00;;;;;;;24.19;100.00;99630.93;1637453;87;21785;-67
2022/08/06 02:44:20;;;;;;;8.03;6.05;;;;;;;24.11;100.00;99634.34;1648993;87;20987;-65
2022/08/06 02:46:50;;;;;;;6.87;6.25;;;;;;;24.13;100.00;99631.12;1637902;85;21043;-66
2022/08/06 02:49:20;;;;;;;7.60;6.22;;;;;;;24.09;100.00;99633.95;1621116;88;21004;-66
2022/08/06 02:52:04;;;;;;;7.67;6.03;;;;;;;24.10;100.00;99641.80;1637554;87;21145;-67
2022/08/06 02:54:52;;;;;;;10.70;5.87;;;;;;;24.05;100.00;99643.03;1633200;85;21883;-67
2022/08/06 02:57:26;;;;;;;10.05;6.08;;;;;;;24.06;100.00;99646.84;1648880;87;20905;-67
2022/08/06 02:59:55;;;;;;;11.03;6.83;;;;;;;24.03;100.00;99639.22;1637637;87;20877;-66
2022/08/06 03:02:24;;;;;;;7.67;6.87;;;;;;;24.05;100.00;99641.63;1648972;87;20944;-66
2022/08/06 03:04:52;;;;;;;8.35;7.03;;;;;;;24.04;100.00;99640.00;1638044;85;20984;-65
2022/08/06 03:07:20;;;;;;;8.53;6.17;;;;;;;24.01;100.00;99643.05;1632456;86;21307;-68
2022/08/06 03:09:50;;;;;;;7.80;6.08;;;;;;;24.06;100.00;99645.43;1674680;85;21083;-66
2022/08/06 03:12:16;;;;;;;7.10;6.05;;;;;;;24.13;100.00;99648.00;1674885;85;21076;-67
2022/08/06 03:14:43;;;;;;;12.40;7.17;;;;;;;24.14;100.00;99643.99;1657236;85;21036;-66
2022/08/06 03:17:14;;;;;;;9.70;6.55;;;;;;;24.13;100.00;99653.62;1674505;85;21091;-66
2022/08/06 03:19:42;;;;;;;9.13;6.40;;;;;;;24.12;100.00;99654.85;1674679;85;21133;-68
2022/08/06 03:22:10;;;;;;;7.40;6.45;;;;;;;24.14;100.00;99651.03;1636654;85;20995;-68
2022/08/06 03:24:38;;;;;;;10.88;7.15;;;;;;;24.16;100.00;99654.20;1674389;85;21064;-67
2022/08/06 03:27:06;;;;;;;7.53;6.65;;;;;;;24.17;100.00;99653.05;1677382;85;20993;-66
2022/08/06 03:29:33;;;;;;;7.95;6.00;;;;;;;24.16;100.00;99653.61;1697445;84;21028;-66
2022/08/06 03:32:02;;;;;;;7.55;5.90;;;;;;;24.16;100.00;99660.65;1697034;84;21554;-67
2022/08/06 03:34:28;;;;;;;10.28;6.03;;;;;;;24.15;100.00;99663.28;1702565;82;21026;-66
2022/08/06 03:37:00;;;;;;;7.80;6.25;;;;;;;24.14;100.00;99665.09;1709784;84;20997;-67
2022/08/06 03:39:31;;;;;;;5.90;5.33;;;;;;;24.23;100.00;99667.47;1709357;83;21007;-69
2022/08/06 03:42:00;;;;;;;7.58;6.33;;;;;;;24.26;100.00;99668.08;1709924;84;21527;-66
2022/08/06 03:44:28;;;;;;;9.68;6.22;;;;;;;24.23;100.00;99676.72;1701884;82;21129;-66
2022/08/06 03:47:09;;;;;;;9.60;7.03;;;;;;;24.27;100.00;99678.92;1697221;84;20967;-67
2022/08/06 03:49:51;;;;;;;7.58;6.20;;;;;;;24.30;100.00;99679.50;1654327;86;20996;-66
2022/08/06 03:52:22;;;;;;;6.92;6.17;;;;;;;24.31;100.00;99676.06;1674281;84;21063;-67
2022/08/06 03:54:54;;;;;;;7.87;7.08;;;;;;;24.33;100.00;99679.90;1661436;85;21068;-66
2022/08/06 03:57:30;;;;;;;9.40;6.72;;;;;;;24.35;100.00;99681.08;1696920;84;20956;-67
2022/08/06 04:00:00;;;;;;;12.55;6.95;;;;;;;24.39;100.00;99684.69;1671859;84;21002;-66
2022/08/06 04:02:33;;;;;;;6.70;5.97;;;;;;;24.28;100.00;99685.33;1699995;82;21052;-66
2022/08/06 04:05:00;;;;;;;10.03;6.58;;;;;;;24.45;100.00;99674.39;1709382;84;21005;-68
2022/08/06 04:07:28;;;;;;;8.90;5.87;;;;;;;24.47;100.00;99682.61;1699759;82;21027;-66
2022/08/06 04:09:54;;;;;;;12.10;6.35;;;;;;;24.50;100.00;99683.78;1697375;84;21091;-68
2022/08/06 04:12:21;;;;;;;7.78;6.08;;;;;;;24.50;100.00;99683.19;1660425;85;21414;-67
2022/08/06 04:14:48;;;;;;;8.23;6.67;;;;;;;24.54;100.00;99685.98;1697265;84;21504;-66
2022/08/06 04:17:14;;;;;;;9.63;7.08;;;;;;;24.58;100.00;99693.00;1661495;86;20944;-67
2022/08/06 04:19:42;;;;;;;6.85;6.15;;;;;;;24.63;100.00;99693.97;1672893;84;21005;-66
2022/08/06 04:22:11;;;;;;;8.80;6.53;;;;;;;24.68;100.00;99697.13;1694790;82;21400;-65
2022/08/06 04:24:40;;;;;;;14.53;7.05;;;;;;;24.72;100.00;99702.74;1684559;85;20940;-68
2022/08/06 04:27:07;;;;;;;7.37;6.25;;;;;;;24.77;100.00;99696.67;1637668;87;21540;-69
2022/08/06 04:29:39;;;;;;;12.40;7.15;;;;;;;24.79;100.00;99696.25;1636179;85;21000;-67
2022/08/06 04:32:06;;;;;;;8.43;6.17;;;;;;;24.87;100.00;99699.83;1657217;85;21008;-68
2022/08/06 04:34:35;;;;;;;11.73;6.53;;;;;;;24.92;100.00;99698.02;1646395;85;21038;-67
2022/08/06 04:37:04;;;;;;;6.65;5.92;;;;;;;24.93;100.00;99698.19;1619810;88;20924;-69
2022/08/06 04:39:32;;;;;;;7.85;6.72;;;;;;;24.96;100.00;99698.77;1640324;85;20881;-66
2022/08/06 04:42:01;;;;;;;11.48;6.45;;;;;;;24.92;100.00;99696.61;1630445;86;21179;-67
2022/08/06 04:44:28;;;;;;;12.50;6.80;;;;;;;24.95;100.00;99692.14;1674606;85;21033;-65
2022/08/06 04:46:55;;;;;;;7.75;6.95;;;;;;;25.03;100.00;99688.05;1662635;85;21244;-68
2022/08/06 04:49:22;;;;;;;7.80;6.70;;;;;;;25.07;100.00;99699.28;1674915;85;20936;-67
2022/08/06 04:51:49;;;;;;;10.45;7.20;;;;;;;25.11;100.00;99700.06;1637921;87;21078;-65
2022/08/06 04:54:16;;;;;;;9.30;6.87;;;;;;;25.15;100.00;99698.00;1674701;85;20978;-67
2022/08/06 04:56:46;;;;;;;10.40;7.22;;;;;;;25.17;100.00;99701.20;1662566;85;21068;-66
2022/08/06 04:59:13;;;;;;;7.37;6.65;;;;;;;25.23;100.00;99703.77;1675044;85;21091;-69
2022/08/06 05:01:41;;;;;;;9.70;7.35;;;;;;;25.27;100.00;99705.95;1660752;85;21334;-66
2022/08/06 05:04:07;;;;;;;12.93;7.03;;;;;;;25.34;100.00;99705.08;1662045;85;21048;-69
2022/08/06 05:07:21;;;;;;;7.00;6.28;;;;;;;25.40;100.00;99701.98;1711758;82;20984;-69
2022/08/06 05:09:48;;;;;;;8.78;6.85;;;;;;;25.47;100.00;99700.33;1717816;82;21471;-66
2022/08/06 05:12:38;;;;;;;7.17;6.45;;;;;;;25.53;100.00;99699.45;1714907;82;20988;-68
2022/08/06 05:15:22;;;;;;;9.95;6.80;;;;;;;25.59;100.00;99695.55;1706422;82;21063;-66
2022/08/06 05:17:54;;;;;;;8.18;6.92;;;;;;;25.66;100.00;99698.14;1711341;82;20999;-77
2022/08/06 05:20:23;;;;;;;7.47;6.00;;;;;;;25.71;100.00;99689.22;1632140;86;21104;-64
2022/08/06 05:22:53;;;;;;;7.00;6.30;;;;;;;25.78;100.00;99693.98;1671321;85;21058;-66
2022/08/06 05:25:22;;;;;;;8.60;6.60;;;;;;;25.84;100.00;99686.04;1722353;82;22134;-68
2022/08/06 05:27:50;;;;;;;8.63;6.35;;;;;;;25.89;100.00;99687.59;1695558;82;21085;-65
2022/08/06 05:30:17;;;;;;;12.20;6.90;;;;;;;25.96;100.00;99686.70;1718324;82;21074;-70
2022/08/06 05:33:01;;;;;;;11.70;7.67;;;;;;;26.00;100.00;99689.66;1706662;82;21109;-71
2022/08/06 05:35:38;;;;;;;12.85;7.00;;;;;;;26.04;100.00;99691.62;1712519;82;21074;-65
2022/08/06 05:38:08;;;;;;;7.05;6.35;;;;;;;26.10;100.00;99688.53;1718482;82;20998;-67
2022/08/06 05:40:35;;;;;;;8.05;6.33;;;;;;;26.20;100.00;99691.83;1717585;82;21074;-69
2022/08/06 05:43:05;;;;;;;9.35;6.40;;;;;;;26.25;100.00;99690.55;1709407;84;20836;-66
2022/08/06 05:45:33;;;;;;;8.88;6.78;;;;;;;26.31;100.00;99686.62;1709675;84;20860;-72
2022/08/06 05:48:00;;;;;;;7.87;6.58;;;;;;;26.35;100.00;99691.04;1699158;82;20991;-67
2022/08/06 05:50:34;;;;;;;6.72;5.97;;;;;;;26.39;100.00;99692.41;1700119;82;20982;-66
2022/08/06 05:53:06;;;;;;;9.68;6.03;;;;;;;26.44;100.00;99694.72;1669094;86;20968;-65
2022/08/06 05:55:55;;;;;;;10.95;6.12;;;;;;;26.49;100.00;99693.47;1669341;85;21105;-67
2022/08/06 05:58:37;;;;;;;7.87;6.58;;;;;;;26.54;100.00;99685.93;1706436;82;20963;-66
2022/08/06 06:01:07;;;;;;;8.90;6.83;;;;;;;26.64;100.00;99682.74;1709449;82;20939;-66
2022/08/06 06:03:37;;;;;;;8.18;6.33;;;;;;;26.67;100.00;99678.25;1685893;84;21137;-66
2022/08/06 06:06:06;;;;;;;6.47;5.87;;;;;;;26.72;100.00;99682.81;1711369;82;21018;-68
2022/08/06 06:08:33;;;;;;;8.40;5.90;;;;;;;26.77;100.00;99677.28;1721918;82;21026;-64
2022/08/06 06:11:00;;;;;;;8.28;6.15;;;;;;;26.84;100.00;99677.78;1717121;82;21015;-68
2022/08/06 06:13:29;;;;;;;8.03;5.47;;;;;;;26.90;100.00;99684.56;1715579;82;21019;-67
2022/08/06 06:16:19;;;;;;;9.08;6.33;;;;;;;27.01;100.00;99682.95;1723003;82;21119;-68
2022/08/06 06:19:28;;;;;;;8.28;6.55;;;;;;;27.04;100.00;99677.88;1722719;82;21287;-66
2022/08/06 06:22:22;;;;;;;7.53;6.03;;;;;;;27.10;100.00;99682.42;1692163;82;21538;-66
2022/08/06 06:25:06;;;;;;;12.18;6.80;;;;;;;27.17;100.00;99675.23;1703146;84;20975;-66
2022/08/06 06:27:59;;;;;;;9.85;6.30;;;;;;;27.26;100.00;99673.87;1709665;84;20981;-68
2022/08/06 06:30:46;;;;;;;9.88;6.65;;;;;;;27.29;100.00;99672.39;1691328;83;21037;-71
2022/08/06 06:33:21;;;;;;;10.45;6.80;;;;;;;27.27;100.00;99676.27;1702187;82;21077;-66
2022/08/06 06:35:59;;;;;;;12.58;7.15;;;;;;;27.36;100.00;99673.48;1701966;82;21043;-66
2022/08/06 06:38:47;;;;;;;16.23;7.50;;;;;;;27.46;100.00;99674.70;1651512;85;21564;-66
2022/08/06 06:41:49;;;;;;;8.63;7.28;;;;;;;27.55;100.00;99675.52;1701680;84;21428;-66
2022/08/06 06:44:36;;;;;;;10.18;6.40;;;;;;;27.60;100.00;99675.66;1703341;82;21042;-68
2022/08/06 06:47:13;;;;;;;7.35;6.62;;;;;;;27.72;100.00;99674.84;1705584;82;21148;-66
2022/08/06 06:49:50;;;;;;;14.28;6.83;;;;;;;27.77;100.00;99671.50;1689310;82;21500;-67
2022/08/06 06:52:31;;;;;;;7.78;6.83;;;;;;;27.83;100.00;99671.16;1715734;82;21081;-67
2022/08/06 06:55:24;;;;;;;12.70;6.80;;;;;;;27.90;100.00;99672.44;1716467;82;21078;-65
2022/08/06 06:57:58;;;;;;;10.13;6.22;;;;;;;27.88;100.00;99669.84;1718678;82;21149;-74
2022/08/06 07:00:28;;;;;;;16.32;8.48;;;;;;;27.96;100.00;99665.66;1713743;82;21562;-70
2022/08/06 07:02:56;;;;;;;13.75;7.50;;;;;;;28.05;100.00;99663.63;1718084;82;21586;-67
2022/08/06 07:05:22;;;;;;;11.85;7.20;;;;;;;28.11;100.00;99661.08;1656674;85;21461;-68
2022/08/06 07:07:51;;;;;;;11.78;7.33;;;;;;;28.08;100.00;99651.42;1663865;85;21037;-66
2022/08/06 07:10:17;;;;;;;15.68;7.65;;;;;;;28.19;100.00;99652.00;1707481;82;21109;-66
2022/08/06 07:12:44;;;;;;;14.83;7.45;;;;;;;28.27;100.00;99652.61;1700053;82;21070;-67
2022/08/06 07:15:13;;;;;;;12.45;7.25;;;;;;;28.33;100.00;99651.48;1697257;82;20916;-67
2022/08/06 07:17:43;;;;;;;11.50;6.83;;;;;;;28.40;100.00;99648.52;1607971;86;20977;-65
2022/08/06 07:20:12;;;;;;;10.70;6.85;;;;;;;28.49;100.00;99645.69;1697814;84;21023;-67
2022/08/06 07:22:42;;;;;;;12.93;7.40;;;;;;;28.57;100.00;99640.02;1697283;84;21087;-66
2022/08/06 07:25:12;;;;;;;9.30;7.15;;;;;;;28.57;100.00;99644.27;1696837;84;21556;-67
2022/08/06 07:27:44;;;;;;;12.82;7.50;;;;;;;28.65;100.00;99631.52;1697338;84;20943;-67
2022/08/06 07:30:13;;;;;;;12.70;7.33;;;;;;;28.77;100.00;99633.45;1660219;86;21000;-66
2022/08/06 07:32:44;;;;;;;8.60;6.40;;;;;;;28.81;100.00;99632.75;1709498;83;20932;-67
2022/08/06 07:35:11;;;;;;;12.63;7.10;;;;;;;28.86;100.00;99626.55;1695952;84;21307;-66
2022/08/06 07:37:48;;;;;;;8.70;6.25;;;;;;;28.94;100.00;99627.76;1681753;82;21013;-67
2022/08/06 07:40:29;;;;;;;11.20;6.62;;;;;;;29.00;100.00;99634.53;1709507;84;20947;-67
2022/08/06 07:43:19;;;;;;;7.15;6.45;;;;;;;29.08;100.00;99634.52;1707063;82;20958;-67
2022/08/06 07:45:47;;;;;;;9.13;7.00;;;;;;;29.15;100.00;99625.82;1660863;82;21050;-68
2022/08/06 07:48:15;;;;;;;8.50;6.80;;;;;;;29.21;100.00;99628.08;1625568;86;21055;-68
2022/08/06 07:50:49;;;;;;;7.53;6.72;;;;;;;29.15;100.00;99627.23;1697570;82;21809;-65
2022/08/06 07:53:16;;;;;;;10.63;7.20;;;;;;;29.19;100.00;99629.17;1715183;82;21057;-64
2022/08/06 07:55:43;;;;;;;7.85;6.40;;;;;;;29.22;100.00;99624.02;1709730;82;21073;-64
2022/08/06 07:58:14;;;;;;;11.30;6.87;;;;;;;29.24;100.00;99626.57;1707164;84;21046;-66
2022/08/06 08:00:43;;;;;;;7.90;6.65;;;;;;;29.32;100.00;99620.09;1684900;82;21009;-67
2022/08/06 08:08:40;;;;;;;9.43;6.72;;;;;;;29.60;100.00;99623.38;1708425;82;21043;-66
2022/08/06 08:11:07;;;;;;;7.78;6.95;;;;;;;29.69;100.00;99624.75;1711443;82;21554;-68
2022/08/06 08:13:34;;;;;;;10.08;6.97;;;;;;;29.76;100.00;99617.45;1726316;82;21248;-67
2022/08/06 08:16:01;;;;;;;14.15;8.40;;;;;;;29.80;100.00;99623.83;1726497;82;20940;-66
2022/08/06 08:18:31;;;;;;;9.90;7.17;;;;;;;29.87;100.00;99627.07;1701276;82;21003;-65
2022/08/06 08:21:01;;;;;;;8.53;6.60;;;;;;;29.94;100.00;99618.31;1721199;82;21047;-67
2022/08/06 08:23:31;;;;;;;10.68;6.62;;;;;;;30.00;100.00;99622.20;1725832;82;21030;-70
2022/08/06 08:26:01;;;;;;;8.68;7.20;;;;;;;30.05;100.00;99618.61;1720580;82;21564;-65
2022/08/06 08:28:30;;;;;;;9.68;6.58;;;;;;;30.16;100.00;99623.97;1724631;82;21147;-67
2022/08/06 08:31:01;;;;;;;9.83;7.50;;;;;;;30.23;100.00;99621.70;1726280;82;21074;-65
2022/08/06 08:33:32;;;;;;;11.73;7.20;;;;;;;30.29;100.00;99621.95;1724425;82;20999;-65
2022/08/06 08:36:00;;;;;;;9.63;7.78;;;;;;;30.35;100.00;99616.50;1724917;82;21490;-74
2022/08/06 08:38:35;;;;;;;8.73;7.83;;;;;;;30.37;100.00;99614.78;1725154;82;21121;-66
2022/08/06 08:41:21;;;;;;;10.32;7.42;;;;;;;30.38;100.00;99621.27;1701608;82;20975;-67
2022/08/06 08:43:53;;;;;;;9.85;8.13;;;;;;;30.47;100.00;99610.63;1676156;82;21034;-65
2022/08/06 08:46:21;;;;;;;9.65;8.15;;;;;;;30.52;100.00;99609.25;1719331;82;21007;-66
2022/08/06 08:48:47;;;;;;;12.65;8.00;;;;;;;30.55;100.00;99612.59;1727903;82;21048;-66
2022/08/06 08:51:17;;;;;;;16.07;8.10;;;;;;;30.61;100.00;99609.34;1720044;82;21061;-66
2022/08/06 08:53:51;;;;;;;10.98;7.47;;;;;;;30.69;100.00;99615.59;1692268;82;21017;-66
2022/08/06 08:56:19;;;;;;;9.88;7.47;;;;;;;30.78;100.00;99616.28;1708808;82;21557;-71
2022/08/06 08:58:51;;;;;;;9.80;7.20;;;;;;;30.92;100.00;99612.19;1721479;82;21094;-68
2022/08/06 09:01:17;;;;;;;7.85;7.15;;;;;;;30.97;100.00;99613.02;1704504;82;21053;-69
2022/08/06 09:03:44;;;;;;;11.45;8.00;;;;;;;31.05;100.00;99612.16;1703217;82;21177;-65
2022/08/06 09:06:12;;;;;;;8.18;7.10;;;;;;;31.08;100.00;99607.74;1709290;82;21034;-67
2022/08/06 09:08:40;;;;;;;9.48;7.62;;;;;;;31.17;100.00;99617.63;1718731;82;21542;-65
2022/08/06 09:11:09;;;;;;;9.00;7.53;;;;;;;31.25;100.00;99617.53;1711976;82;21030;-66
2022/08/06 09:13:38;;;;;;;11.08;7.80;;;;;;;31.29;100.00;99620.25;1646968;85;22186;-68
2022/08/06 09:16:11;;;;;;;8.60;7.47;;;;;;;31.34;100.00;99618.21;1716146;82;21073;-65
2022/08/06 09:18:40;;;;;;;9.65;7.45;;;;;;;31.38;100.00;99620.92;1715372;82;21065;-68
2022/08/06 09:21:09;;;;;;;8.85;7.03;;;;;;;31.43;100.00;99616.89;1712670;82;21003;-65
2022/08/06 09:23:39;;;;;;;8.38;7.50;;;;;;;31.46;100.00;99618.81;1710058;82;21105;-69
2022/08/06 09:26:06;;;;;;;8.73;7.12;;;;;;;31.50;100.00;99615.84;1645266;86;21123;-67
2022/08/06 09:28:42;;;;;;;7.97;7.03;;;;;;;31.47;100.00;99613.92;1644664;86;21859;-67
2022/08/06 09:31:20;;;;;;;11.18;6.80;;;;;;;31.50;100.00;99608.72;1640373;85;21172;-66
2022/08/06 09:34:00;;;;;;;8.15;6.12;;;;;;;31.55;100.00;99613.81;1620368;87;21098;-66
2022/08/06 09:36:28;;;;;;;7.83;7.03;;;;;;;31.60;100.00;99613.84;1610082;87;21146;-68
2022/08/06 09:38:59;;;;;;;10.40;6.90;;;;;;;31.69;100.00;99611.06;1629100;87;21017;-65
2022/08/06 09:41:30;;;;;;;12.47;6.47;;;;;;;31.78;100.00;99614.56;1633197;87;21155;-65
2022/08/06 09:43:58;;;;;;;7.00;6.30;;;;;;;31.82;100.00;99608.12;1627735;85;21012;-66
2022/08/06 09:46:44;;;;;;;11.85;7.25;;;;;;;31.91;100.00;99613.69;1631895;85;21091;-70
2022/08/06 09:49:14;;;;;;;9.73;6.00;;;;;;;32.02;100.00;99609.81;1621982;87;21098;-67
2022/08/06 09:51:45;;;;;;;11.33;7.33;;;;;;;32.11;100.00;99604.78;1631718;85;21070;-65
2022/08/06 09:54:15;;;;;;;9.65;7.00;;;;;;;32.17;100.00;99614.95;1634216;85;21772;-69
2022/08/06 09:56:44;;;;;;;7.95;6.70;;;;;;;32.23;100.00;99608.79;1635546;87;21093;-66
2022/08/06 09:59:12;;;;;;;8.08;7.17;;;;;;;32.21;100.00;99609.11;1631734;87;21134;-74
2022/08/06 10:01:48;;;;;;;9.88;7.28;;;;;;;32.26;100.00;99609.92;1620484;87;21078;-69
2022/08/06 10:04:27;;;;;;;12.88;7.20;;;;;;;32.27;100.00;99608.65;1629279;85;22400;-67
2022/08/06 10:07:00;;;;;;;8.70;6.67;;;;;;;32.27;100.00;99602.95;1637500;87;21135;-66
2022/08/06 10:09:32;;;;;;;14.28;6.65;;;;;;;32.23;100.00;99605.14;1630313;87;21522;-65
2022/08/06 10:12:05;;;;;;;6.83;6.12;;;;;;;32.18;100.00;99598.80;1617015;88;21100;-66
2022/08/06 10:14:33;;;;;;;7.20;6.50;;;;;;;32.19;100.00;99604.66;1621658;87;21078;-65
2022/08/06 10:17:19;;;;;;;8.38;6.78;;;;;;;32.21;100.00;99594.86;1637381;85;21145;-67
2022/08/06 10:19:48;;;;;;;8.13;7.30;;;;;;;32.26;100.00;99598.52;1619153;87;21199;-65
2022/08/06 10:22:20;;;;;;;10.05;7.47;;;;;;;32.38;100.00;99595.39;1632995;85;21054;-66
2022/08/06 10:24:51;;;;;;;9.05;7.45;;;;;;;32.45;100.00;99597.92;1638212;85;21592;-66
2022/08/06 10:27:29;;;;;;;8.33;6.87;;;;;;;32.58;100.00;99602.74;1637218;85;21047;-67
2022/08/06 10:30:00;;;;;;;6.65;5.95;;;;;;;32.67;100.00;99601.34;1693958;84;21516;-65
2022/08/06 10:32:47;;;;;;;6.37;5.78;;;;;;;32.75;100.00;99591.22;1685902;83;21058;-71
2022/08/06 10:35:23;;;;;;;7.85;6.65;;;;;;;32.81;100.00;99592.02;1685922;84;21479;-66
2022/08/06 10:37:53;;;;;;;8.58;6.35;;;;;;;32.88;100.00;99597.38;1719019;82;21038;-69
2022/08/06 10:40:20;;;;;;;9.20;5.25;;;;;;;33.00;100.00;99601.35;1726877;82;21034;-71
2022/08/06 10:42:54;;;;;;;8.75;6.55;;;;;;;33.05;100.00;99596.44;1733315;82;21066;-70
2022/08/06 10:45:21;;;;;;;13.90;6.83;;;;;;;33.10;100.00;99597.89;1731240;82;21476;-66
2022/08/06 10:47:49;;;;;;;10.48;7.20;;;;;;;33.22;100.00;99598.36;1731495;82;21015;-68
2022/08/06 10:50:17;;;;;;;13.05;7.05;;;;;;;33.32;100.00;99595.52;1728733;82;21003;-66
2022/08/06 10:52:46;;;;;;;6.67;6.03;;;;;;;33.37;100.00;99600.59;1730940;82;21070;-69
2022/08/06 10:55:17;;;;;;;7.03;6.30;;;;;;;33.44;100.00;99606.59;1729101;82;21034;-67
2022/08/06 10:57:45;;;;;;;18.40;6.78;;;;;;;33.45;100.00;99599.61;1697611;82;21136;-65
2022/08/06 11:00:15;;;;;;;8.53;6.08;;;;;;;33.44;100.00;99600.23;1731139;82;21086;-65
2022/08/06 11:03:15;;;;;;;7.65;6.30;;;;;;;33.50;100.00;99605.48;1723949;82;21079;-69
2022/08/06 11:05:42;;;;;;;7.10;6.40;;;;;;;33.45;100.00;99604.69;1726312;82;21081;-67
2022/08/06 11:08:49;;;;;;;13.53;6.85;;;;;;;33.33;100.00;99595.66;1726726;82;20979;-66
2022/08/06 11:11:26;;;;;;;7.42;5.80;;;;;;;33.21;100.00;99595.98;1722066;82;21487;-68
2022/08/06 11:14:10;;;;;;;6.67;5.37;;;;;;;33.04;100.00;99596.29;1710673;82;21595;-68
2022/08/06 11:16:41;;;;;;;6.53;5.37;;;;;;;33.01;100.00;99597.25;1721917;82;21121;-66
2022/08/06 11:19:10;;;;;;;7.85;5.45;;;;;;;33.03;100.00;99587.56;1698345;82;21120;-68
2022/08/06 11:21:49;;;;;;;11.00;5.33;;;;;;;33.07;100.00;99585.98;1722851;82;21148;-67
2022/08/06 11:24:16;;;;;;;6.05;5.45;;;;;;;33.13;100.00;99579.84;1721488;82;21803;-67
2022/08/06 11:26:47;;;;;;;12.10;7.70;;;;;;;33.22;100.00;99574.11;1689311;82;21054;-67
2022/08/06 11:29:17;;;;;;;14.45;6.60;;;;;;;33.30;100.00;99582.36;1724101;82;21054;-68
2022/08/06 11:31:48;;;;;;;7.62;6.60;;;;;;;33.36;100.00;99587.56;1723604;82;21090;-64
2022/08/06 11:34:18;;;;;;;5.83;5.20;;;;;;;33.40;100.00;99578.98;1716524;82;21090;-67
2022/08/06 11:36:56;;;;;;;7.33;5.17;;;;;;;33.44;100.00;99583.11;1724625;82;21076;-65
2022/08/06 11:39:28;;;;;;;6.83;6.03;;;;;;;33.49;100.00;99592.45;1722318;82;21030;-69
2022/08/06 11:42:01;;;;;;;6.17;5.30;;;;;;;33.55;100.00;99588.95;1723061;82;21054;-65
2022/08/06 11:44:32;;;;;;;10.10;5.40;;;;;;;33.58;100.00;99587.36;1720591;82;21034;-70
2022/08/06 11:47:19;;;;;;;5.70;4.87;;;;;;;33.64;100.00;99591.83;1722556;82;21035;-66
2022/08/06 11:49:47;;;;;;;6.35;5.28;;;;;;;33.64;100.00;99584.69;1722861;82;23630;-67
2022/08/06 11:52:34;;;;;;;5.83;4.58;;;;;;;33.61;98.68;99596.39;1726558;82;21101;-66